Time;durP1;ratioP1;P1;durP2;ratioP2;P2;SDS_P1;SDS_P2;PMS_P1;PMS_P2;Temp;Humidity;BMP_temperature;BMP_pressure;BME280_temperature;BME280_humidity;BME280_pressure;Samples;Min_cycle;Max_cycle;Signal;HPM_P1;HPM_P2
2023/05/14 00:01:10;;;;;;;5.40;4.13;;;12.10;84.90;;;;;;5040464;28;20252;-77
2023/05/14 00:03:38;;;;;;;7.30;3.93;;;12.10;85.10;;;;;;5039475;28;20223;-77
2023/05/14 00:06:05;;;;;;;7.30;4.00;;;12.00;85.20;;;;;;5035365;28;20279;-77
2023/05/14 00:08:33;;;;;;;7.17;3.97;;;12.00;85.70;;;;;;5040572;28;20224;-77
2023/05/14 00:11:00;;;;;;;5.63;3.70;;;11.90;86.50;;;;;;5019213;28;20278;-78
2023/05/14 00:13:27;;;;;;;6.13;3.67;;;11.90;86.60;;;;;;5037647;28;20311;-77
2023/05/14 00:15:53;;;;;;;5.73;3.97;;;11.80;86.90;;;;;;5038752;28;20224;-77
2023/05/14 00:18:20;;;;;;;4.87;3.60;;;11.80;87.40;;;;;;5033386;28;20225;-77
2023/05/14 00:20:47;;;;;;;5.73;4.33;;;11.70;88.30;;;;;;5033643;28;20220;-77
2023/05/14 00:23:13;;;;;;;6.67;4.37;;;11.70;89.00;;;;;;5017547;28;20227;-77
2023/05/14 00:25:41;;;;;;;5.00;3.93;;;11.70;89.40;;;;;;5021193;28;20220;-77
2023/05/14 00:28:08;;;;;;;5.90;3.50;;;11.60;90.00;;;;;;5035214;28;20632;-77
2023/05/14 00:30:35;;;;;;;4.23;3.83;;;11.60;90.00;;;;;;5036717;28;20759;-78
2023/05/14 00:33:01;;;;;;;5.40;4.17;;;11.50;90.30;;;;;;5016788;28;21005;-79
2023/05/14 00:35:28;;;;;;;5.77;3.70;;;11.50;90.50;;;;;;5035685;28;20224;-78
2023/05/14 00:37:55;;;;;;;4.90;4.10;;;11.50;90.60;;;;;;5021989;28;20221;-77
2023/05/14 00:40:26;;;;;;;5.23;4.03;;;11.40;90.80;;;;;;5037429;28;20313;-77
2023/05/14 00:42:54;;;;;;;5.07;4.13;;;11.40;91.30;;;;;;5022027;28;20231;-76
2023/05/14 00:45:22;;;;;;;4.17;3.70;;;11.30;91.30;;;;;;5040095;28;20315;-77
2023/05/14 00:47:49;;;;;;;8.00;4.10;;;11.40;91.50;;;;;;5039528;28;20270;-77
2023/05/14 00:50:16;;;;;;;4.77;4.23;;;11.30;91.80;;;;;;5038845;28;20230;-77
2023/05/14 00:52:43;;;;;;;5.70;3.77;;;11.30;92.00;;;;;;5021860;28;20855;-77
2023/05/14 00:55:15;;;;;;;6.93;4.30;;;11.20;92.10;;;;;;5021437;28;20221;-77
2023/05/14 00:57:42;;;;;;;5.63;4.23;;;11.20;92.30;;;;;;5040057;28;20236;-76
2023/05/14 01:00:11;;;;;;;6.83;4.07;;;11.20;92.30;;;;;;5023000;28;20221;-77
2023/05/14 01:02:38;;;;;;;4.97;4.20;;;11.20;92.70;;;;;;5023703;28;20585;-78
2023/05/14 01:05:05;;;;;;;5.53;3.77;;;11.10;92.80;;;;;;5041473;28;20227;-77
2023/05/14 01:07:39;;;;;;;4.63;4.00;;;11.10;93.10;;;;;;5023142;28;20723;-77
2023/05/14 01:10:11;;;;;;;4.70;4.10;;;11.00;93.50;;;;;;5022010;28;20230;-76
2023/05/14 01:12:47;;;;;;;5.57;3.93;;;11.00;93.60;;;;;;5016028;28;20229;-79
2023/05/14 01:15:20;;;;;;;5.40;4.17;;;11.00;93.80;;;;;;5019499;28;20231;-80
2023/05/14 01:17:53;;;;;;;5.40;3.90;;;10.90;94.00;;;;;;5040634;28;20247;-79
2023/05/14 01:20:20;;;;;;;4.53;4.13;;;10.90;94.00;;;;;;5022221;28;20220;-78
2023/05/14 01:22:49;;;;;;;6.87;4.50;;;10.80;93.90;;;;;;5040391;28;20228;-79
2023/05/14 01:25:16;;;;;;;4.67;4.27;;;10.90;94.50;;;;;;5038848;28;20232;-79
2023/05/14 01:27:49;;;;;;;4.80;4.30;;;10.80;94.50;;;;;;5024397;28;20236;-79
2023/05/14 01:30:21;;;;;;;6.37;4.07;;;10.80;94.90;;;;;;5022353;28;20310;-79
2023/05/14 01:32:50;;;;;;;5.23;4.70;;;10.70;95.00;;;;;;5021586;28;20231;-78
2023/05/14 01:35:17;;;;;;;5.63;5.03;;;10.70;95.00;;;;;;5039297;28;20231;-79
2023/05/14 01:37:45;;;;;;;6.43;4.50;;;10.70;95.10;;;;;;5021515;28;20221;-79
2023/05/14 01:40:15;;;;;;;5.50;4.47;;;10.70;95.10;;;;;;5022640;28;20223;-79
2023/05/14 01:42:43;;;;;;;5.93;4.40;;;10.70;95.30;;;;;;5044166;28;20774;-79
2023/05/14 01:45:10;;;;;;;5.00;4.50;;;10.60;95.40;;;;;;5042909;28;20230;-79
2023/05/14 01:47:37;;;;;;;6.87;4.47;;;10.60;95.50;;;;;;5042544;28;20232;-80
2023/05/14 01:50:05;;;;;;;4.93;4.33;;;10.50;95.60;;;;;;5025086;28;20239;-80
2023/05/14 01:52:32;;;;;;;4.83;4.33;;;10.50;96.10;;;;;;5040902;28;20220;-79
2023/05/14 01:54:59;;;;;;;5.00;4.50;;;10.50;96.20;;;;;;5016106;28;20308;-80
2023/05/14 01:57:27;;;;;;;4.67;4.27;;;10.50;96.40;;;;;;5046471;28;20223;-80
2023/05/14 01:59:54;;;;;;;6.03;4.60;;;10.50;96.60;;;;;;5025798;28;20251;-80
2023/05/14 02:02:21;;;;;;;7.70;4.87;;;10.40;96.50;;;;;;5025942;28;20319;-80
2023/05/14 02:04:47;;;;;;;6.37;4.83;;;10.40;96.80;;;;;;5028400;28;20311;-80
2023/05/14 02:07:14;;;;;;;5.90;4.57;;;10.30;96.90;;;;;;5033102;28;20315;-80
2023/05/14 02:09:41;;;;;;;6.13;4.60;;;10.30;97.00;;;;;;5045507;28;20656;-79
2023/05/14 02:12:09;;;;;;;7.87;5.13;;;10.20;97.10;;;;;;5016905;28;20238;-82
2023/05/14 02:14:38;;;;;;;6.20;4.90;;;10.20;97.30;;;;;;5029621;28;20267;-81
2023/05/14 02:17:05;;;;;;;5.87;5.10;;;10.20;97.80;;;;;;5028867;28;20224;-81
2023/05/14 02:19:32;;;;;;;6.40;5.07;;;10.10;97.60;;;;;;5027894;28;20323;-81
2023/05/14 02:21:59;;;;;;;5.20;4.70;;;10.10;97.60;;;;;;5040798;28;20299;-80
2023/05/14 02:24:27;;;;;;;7.93;5.27;;;10.00;97.70;;;;;;5044274;28;20709;-80
2023/05/14 02:26:54;;;;;;;5.73;4.70;;;10.00;97.80;;;;;;5046027;28;20904;-81
2023/05/14 02:29:21;;;;;;;5.93;5.00;;;9.90;97.80;;;;;;5027266;28;20220;-82
2023/05/14 02:31:49;;;;;;;6.23;5.63;;;9.90;98.00;;;;;;5025295;28;21871;-80
2023/05/14 02:34:16;;;;;;;8.40;5.17;;;9.90;98.50;;;;;;5025118;28;20285;-81
2023/05/14 02:36:42;;;;;;;5.73;5.17;;;9.80;98.70;;;;;;5025506;28;20244;-81
2023/05/14 02:39:09;;;;;;;5.57;5.07;;;9.80;98.60;;;;;;5042856;28;20220;-80
2023/05/14 02:41:36;;;;;;;5.87;5.03;;;9.80;98.50;;;;;;5047047;28;20220;-81
2023/05/14 02:44:03;;;;;;;5.77;5.13;;;9.70;98.50;;;;;;5029142;28;20664;-81
2023/05/14 02:46:31;;;;;;;7.13;4.90;;;9.70;98.70;;;;;;5029111;28;20224;-80
2023/05/14 02:48:59;;;;;;;5.60;5.00;;;9.70;98.80;;;;;;5045682;28;20698;-80
2023/05/14 02:51:26;;;;;;;6.43;4.93;;;9.60;99.10;;;;;;5044869;28;20475;-80
2023/05/14 02:53:52;;;;;;;5.60;5.10;;;9.60;99.10;;;;;;5023360;28;20752;-80
2023/05/14 02:56:19;;;;;;;7.23;5.20;;;9.50;99.20;;;;;;5042191;28;20216;-78
2023/05/14 02:58:46;;;;;;;5.40;4.90;;;9.50;99.40;;;;;;5023439;28;20225;-81
2023/05/14 03:01:14;;;;;;;7.47;4.93;;;9.50;99.60;;;;;;5023974;28;20220;-81
2023/05/14 03:03:41;;;;;;;6.30;4.90;;;9.50;99.80;;;;;;5034979;28;20907;-80
2023/05/14 03:06:09;;;;;;;8.30;5.30;;;9.50;99.90;;;;;;5022718;28;20653;-81
2023/05/14 03:08:35;;;;;;;6.13;4.80;;;9.50;99.90;;;;;;5044021;28;20644;-81
2023/05/14 03:11:02;;;;;;;5.73;5.17;;;9.50;99.90;;;;;;5027747;28;20240;-80
2023/05/14 03:13:29;;;;;;;5.80;4.77;;;9.50;99.90;;;;;;5042722;28;20305;-81
2023/05/14 03:15:57;;;;;;;5.13;4.60;;;9.50;99.90;;;;;;5025287;28;20296;-81
2023/05/14 03:18:23;;;;;;;5.10;4.60;;;9.50;99.90;;;;;;5027542;28;20290;-80
2023/05/14 03:20:50;;;;;;;6.37;5.00;;;9.50;99.90;;;;;;5045724;28;20223;-79
2023/05/14 03:23:18;;;;;;;8.23;5.30;;;9.50;99.90;;;;;;5041017;28;20234;-79
2023/05/14 03:25:45;;;;;;;7.33;5.00;;;9.50;99.90;;;;;;5038003;28;20221;-79
2023/05/14 03:28:12;;;;;;;6.77;5.00;;;9.50;99.90;;;;;;5019778;28;20220;-79
2023/05/14 03:30:39;;;;;;;6.07;4.93;;;9.40;99.90;;;;;;5023550;28;20309;-79
2023/05/14 03:33:06;;;;;;;6.27;5.13;;;9.40;99.90;;;;;;5039437;28;20787;-79
2023/05/14 03:35:33;;;;;;;6.50;5.30;;;9.40;99.90;;;;;;5024281;28;20314;-79
2023/05/14 03:37:59;;;;;;;6.23;5.33;;;9.40;99.90;;;;;;5020510;28;20696;-79
2023/05/14 03:40:27;;;;;;;5.97;5.37;;;9.40;99.90;;;;;;5023597;28;20236;-79
2023/05/14 03:42:54;;;;;;;6.13;5.57;;;9.40;99.90;;;;;;5021346;28;20216;-79
2023/05/14 03:45:21;;;;;;;6.80;5.40;;;9.40;99.90;;;;;;5020008;28;20216;-80
2023/05/14 03:47:48;;;;;;;5.83;5.17;;;9.40;99.90;;;;;;5018862;28;20281;-79
2023/05/14 03:50:15;;;;;;;6.27;5.67;;;9.40;99.90;;;;;;5023202;28;20230;-80
2023/05/14 03:52:42;;;;;;;6.63;5.43;;;9.40;99.90;;;;;;5040919;28;20338;-80
2023/05/14 03:55:09;;;;;;;6.37;5.73;;;9.40;99.90;;;;;;5017709;28;20317;-79
2023/05/14 03:57:37;;;;;;;6.43;5.77;;;9.40;99.90;;;;;;5023205;28;20224;-79
2023/05/14 04:00:05;;;;;;;9.37;6.13;;;9.40;99.90;;;;;;5040264;28;20855;-79
2023/05/14 04:02:43;;;;;;;5.93;5.33;;;9.40;99.90;;;;;;5037361;28;20228;-79
2023/05/14 04:05:10;;;;;;;5.93;5.43;;;9.40;99.90;;;;;;5019057;28;20257;-80
2023/05/14 04:07:36;;;;;;;6.30;5.70;;;9.40;99.90;;;;;;5022440;28;20228;-79
2023/05/14 04:10:04;;;;;;;9.10;5.50;;;9.50;99.90;;;;;;5032025;28;20232;-79
2023/05/14 04:12:31;;;;;;;6.83;5.70;;;9.50;99.90;;;;;;5022670;28;20223;-79
2023/05/14 04:15:00;;;;;;;7.13;5.47;;;9.50;99.90;;;;;;5022770;28;20768;-79
2023/05/14 04:17:27;;;;;;;6.70;5.50;;;9.60;99.90;;;;;;5036403;28;20270;-79
2023/05/14 04:19:54;;;;;;;6.27;5.63;;;9.60;99.90;;;;;;5022751;28;20220;-79
2023/05/14 04:22:21;;;;;;;6.33;5.70;;;9.70;99.90;;;;;;5017023;28;20220;-79
2023/05/14 04:24:48;;;;;;;7.27;6.00;;;9.70;99.90;;;;;;5038168;28;20222;-78
2023/05/14 04:27:19;;;;;;;6.30;5.70;;;9.70;99.90;;;;;;5019641;28;20311;-79
2023/05/14 04:29:46;;;;;;;8.70;5.50;;;9.80;99.90;;;;;;5039862;28;20319;-79
2023/05/14 04:32:14;;;;;;;8.00;5.90;;;9.80;99.90;;;;;;5039261;28;20228;-79
2023/05/14 04:34:41;;;;;;;6.67;5.80;;;9.80;99.90;;;;;;5038151;28;21379;-78
2023/05/14 04:37:07;;;;;;;6.53;5.93;;;9.80;99.90;;;;;;5037409;28;20220;-79
2023/05/14 04:39:34;;;;;;;8.37;5.67;;;9.90;99.90;;;;;;5037453;28;20312;-79
2023/05/14 04:42:01;;;;;;;6.73;5.97;;;10.00;99.90;;;;;;5041095;28;20232;-79
2023/05/14 04:44:28;;;;;;;7.77;5.30;;;10.10;99.90;;;;;;5037256;28;20230;-80
2023/05/14 04:46:54;;;;;;;7.33;6.20;;;10.10;99.90;;;;;;5037644;28;20235;-79
2023/05/14 04:49:22;;;;;;;8.33;6.07;;;10.20;99.90;;;;;;5039846;28;20220;-81
2023/05/14 04:51:49;;;;;;;7.70;5.90;;;10.20;99.90;;;;;;5024207;28;20734;-78
2023/05/14 04:54:16;;;;;;;6.50;5.80;;;10.30;99.90;;;;;;5012749;28;20940;-78
2023/05/14 04:56:43;;;;;;;6.13;5.30;;;10.30;99.90;;;;;;5022079;28;20634;-78
2023/05/14 04:59:10;;;;;;;5.60;5.10;;;10.40;99.90;;;;;;5034418;28;20234;-78
2023/05/14 05:01:37;;;;;;;9.00;5.87;;;10.40;99.90;;;;;;5036933;28;20227;-78
2023/05/14 05:04:04;;;;;;;6.00;5.43;;;10.50;99.90;;;;;;5036884;28;20222;-78
2023/05/14 05:06:32;;;;;;;8.87;5.40;;;10.60;99.90;;;;;;5038856;28;20214;-79
2023/05/14 05:08:59;;;;;;;7.33;5.80;;;10.70;99.90;;;;;;5039314;28;20228;-79
2023/05/14 05:11:25;;;;;;;8.97;5.73;;;10.70;99.90;;;;;;5038424;28;20317;-80
2023/05/14 05:13:52;;;;;;;8.60;5.67;;;10.80;99.90;;;;;;5021849;28;20227;-79
2023/05/14 05:16:19;;;;;;;6.47;5.27;;;10.90;99.90;;;;;;5044585;28;20233;-79
2023/05/14 05:18:45;;;;;;;6.53;5.77;;;11.00;99.90;;;;;;5043190;28;20220;-79
2023/05/14 05:21:12;;;;;;;7.73;5.67;;;11.10;99.90;;;;;;5042985;28;20220;-78
2023/05/14 05:23:40;;;;;;;6.93;5.33;;;11.10;99.90;;;;;;5043133;28;20239;-78
2023/05/14 05:26:07;;;;;;;6.20;5.60;;;11.20;99.90;;;;;;5041698;28;20234;-79
2023/05/14 05:28:34;;;;;;;5.93;5.43;;;11.20;99.90;;;;;;5044100;28;20234;-78
2023/05/14 05:31:00;;;;;;;6.33;5.70;;;11.30;99.90;;;;;;5044790;28;20216;-78
2023/05/14 05:33:27;;;;;;;8.60;5.67;;;11.30;99.90;;;;;;5042099;28;20310;-79
2023/05/14 05:35:54;;;;;;;6.27;5.57;;;11.40;99.90;;;;;;5042005;28;20570;-79
2023/05/14 05:38:21;;;;;;;11.20;5.77;;;11.50;99.90;;;;;;5022002;28;20232;-79
2023/05/14 05:40:49;;;;;;;6.20;5.60;;;11.50;99.90;;;;;;5024116;28;20570;-80
2023/05/14 05:43:16;;;;;;;7.10;5.93;;;11.60;99.90;;;;;;5039073;28;20732;-81
2023/05/14 05:45:44;;;;;;;5.90;5.30;;;11.70;99.90;;;;;;5043824;28;20225;-80
2023/05/14 05:48:11;;;;;;;6.00;5.37;;;11.70;99.90;;;;;;5041285;28;20239;-81
2023/05/14 05:50:38;;;;;;;7.50;5.70;;;11.80;99.90;;;;;;5044021;28;20633;-81
2023/05/14 05:53:04;;;;;;;5.93;5.33;;;11.80;99.90;;;;;;5025705;28;20744;-81
2023/05/14 05:55:31;;;;;;;6.07;5.47;;;11.90;99.90;;;;;;5045510;28;20221;-80
2023/05/14 05:57:59;;;;;;;6.73;5.53;;;12.00;99.90;;;;;;5045840;28;20229;-81
2023/05/14 06:00:26;;;;;;;6.97;6.00;;;12.00;99.90;;;;;;5042511;28;20807;-82
2023/05/14 06:02:52;;;;;;;8.40;5.67;;;12.10;99.90;;;;;;5007340;28;20229;-81
2023/05/14 06:05:19;;;;;;;5.87;5.27;;;12.20;99.90;;;;;;5047275;28;20230;-80
2023/05/14 06:07:46;;;;;;;7.30;5.07;;;12.30;99.90;;;;;;5034123;28;22128;-81
2023/05/14 06:10:12;;;;;;;7.30;5.03;;;12.50;99.90;;;;;;5027319;28;20233;-81
2023/05/14 06:12:39;;;;;;;6.67;5.17;;;12.60;99.90;;;;;;5024141;28;20235;-81
2023/05/14 06:15:08;;;;;;;5.67;5.17;;;12.80;99.90;;;;;;5023033;28;20239;-81
2023/05/14 06:17:35;;;;;;;5.70;5.17;;;12.90;99.90;;;;;;5021919;28;20301;-81
2023/05/14 06:20:02;;;;;;;7.50;4.90;;;13.10;99.90;;;;;;5028194;28;20229;-81
2023/05/14 06:22:28;;;;;;;6.20;5.20;;;13.30;99.90;;;;;;5028928;28;20231;-81
2023/05/14 06:24:55;;;;;;;5.00;4.50;;;13.50;99.90;;;;;;5036099;28;20222;-79
2023/05/14 06:27:22;;;;;;;6.60;4.70;;;13.60;99.90;;;;;;5027535;28;20227;-79
2023/05/14 06:29:48;;;;;;;5.50;4.70;;;13.80;99.90;;;;;;5029204;28;20232;-79
2023/05/14 06:32:16;;;;;;;5.17;4.67;;;14.00;99.90;;;;;;5046151;28;20224;-79
2023/05/14 06:34:43;;;;;;;5.37;4.87;;;14.10;99.90;;;;;;5028913;28;20224;-79
2023/05/14 06:37:11;;;;;;;4.87;4.10;;;14.20;99.90;;;;;;5028125;28;20216;-78
2023/05/14 06:39:38;;;;;;;4.60;4.10;;;14.30;99.90;;;;;;5045620;28;20265;-79
2023/05/14 06:42:05;;;;;;;4.40;4.00;;;14.40;99.90;;;;;;5029842;28;20631;-79
2023/05/14 06:44:32;;;;;;;5.00;4.10;;;14.60;99.90;;;;;;5027454;28;20247;-79
2023/05/14 06:46:59;;;;;;;5.75;4.00;;;14.80;99.70;;;;;;5025942;28;20213;-78
2023/05/14 06:49:27;;;;;;;4.60;4.20;;;15.10;99.40;;;;;;5024059;28;20228;-79
2023/05/14 06:51:53;;;;;;;4.20;3.72;;;15.30;98.70;;;;;;5044203;28;20227;-78
2023/05/14 06:54:20;;;;;;;5.10;3.87;;;15.60;98.40;;;;;;5044412;28;20220;-79
2023/05/14 06:56:47;;;;;;;5.00;3.95;;;15.90;98.30;;;;;;5044668;28;20250;-81
2023/05/14 06:59:13;;;;;;;5.82;4.22;;;16.10;97.90;;;;;;5038184;28;20231;-80
2023/05/14 07:01:40;;;;;;;5.75;3.92;;;16.50;97.70;;;;;;5039993;28;20220;-80
2023/05/14 07:04:07;;;;;;;7.43;3.90;;;17.00;97.70;;;;;;5028805;28;20219;-82
2023/05/14 07:06:35;;;;;;;6.28;3.90;;;17.50;97.50;;;;;;5027007;28;20230;-82
2023/05/14 07:09:02;;;;;;;4.28;3.47;;;18.30;97.20;;;;;;5029248;28;21673;-82
2023/05/14 07:11:29;;;;;;;3.67;3.38;;;19.10;95.50;;;;;;5043907;28;20235;-82
2023/05/14 07:13:56;;;;;;;3.30;3.00;;;19.90;94.60;;;;;;5062728;23;20220;-79
2023/05/14 07:16:23;;;;;;;4.18;3.28;;;20.70;93.50;;;;;;5061170;28;20230;-79
2023/05/14 07:18:49;;;;;;;4.82;3.15;;;21.50;91.90;;;;;;5062523;28;20234;-78
2023/05/14 07:21:16;;;;;;;3.92;3.30;;;22.40;91.40;;;;;;5058841;28;20612;-79
2023/05/14 07:23:44;;;;;;;3.63;3.33;;;23.10;87.70;;;;;;5042136;28;20697;-80
2023/05/14 07:26:11;;;;;;;4.07;3.00;;;23.80;82.80;;;;;;5043715;28;20242;-78
2023/05/14 07:28:37;;;;;;;3.40;3.10;;;24.40;82.50;;;;;;5064560;28;20231;-80
2023/05/14 07:31:07;;;;;;;3.58;3.28;;;24.90;81.10;;;;;;5062175;28;20227;-79
2023/05/14 07:33:34;;;;;;;3.80;2.88;;;25.30;79.40;;;;;;5044049;28;20223;-79
2023/05/14 07:36:01;;;;;;;4.60;2.75;;;25.70;75.60;;;;;;5057167;28;20215;-80
2023/05/14 07:38:28;;;;;;;4.18;2.83;;;26.10;72.30;;;;;;5062017;28;20227;-80
2023/05/14 07:40:55;;;;;;;5.28;3.13;;;26.40;72.40;;;;;;5048459;28;20226;-79
2023/05/14 07:43:22;;;;;;;13.77;3.20;;;26.80;71.10;;;;;;5060952;28;20231;-78
2023/05/14 07:45:49;;;;;;;3.38;2.70;;;27.20;66.00;;;;;;5065166;28;20238;-80
2023/05/14 07:48:16;;;;;;;4.63;3.15;;;27.50;66.50;;;;;;5042496;28;20227;-79
2023/05/14 07:50:42;;;;;;;3.03;2.72;;;27.90;63.70;;;;;;5045939;28;20269;-80
2023/05/14 07:53:09;;;;;;;3.67;2.75;;;28.10;60.00;;;;;;5041062;28;20234;-80
2023/05/14 07:55:36;;;;;;;3.33;2.95;;;28.30;59.60;;;;;;5055553;28;20241;-80
2023/05/14 07:58:04;;;;;;;3.10;2.80;;;28.40;60.30;;;;;;5062741;28;20222;-80
2023/05/14 08:00:31;;;;;;;4.53;2.70;;;28.60;58.50;;;;;;5057335;28;20226;-80
2023/05/14 08:02:57;;;;;;;4.13;2.80;;;28.90;59.00;;;;;;5057749;28;20228;-80
2023/05/14 08:05:25;;;;;;;3.83;2.65;;;29.10;58.40;;;;;;5060820;28;20230;-80
2023/05/14 08:07:52;;;;;;;2.92;2.63;;;29.40;58.00;;;;;;5060537;28;20234;-80
2023/05/14 08:10:18;;;;;;;3.30;3.00;;;29.60;57.00;;;;;;5062302;28;20595;-80
2023/05/14 08:12:45;;;;;;;4.63;2.45;;;29.90;56.70;;;;;;5061373;28;20242;-80
2023/05/14 08:15:13;;;;;;;4.00;2.70;;;30.20;56.20;;;;;;5048476;28;20729;-80
2023/05/14 08:17:39;;;;;;;3.08;2.65;;;30.60;54.10;;;;;;5057547;28;20215;-80
2023/05/14 08:20:07;;;;;;;2.80;2.15;;;30.80;51.60;;;;;;5058711;28;20227;-80
2023/05/14 08:22:34;;;;;;;3.33;2.38;;;31.00;50.70;;;;;;5058524;28;20318;-80
2023/05/14 08:25:02;;;;;;;7.47;2.60;;;31.10;50.80;;;;;;5042475;28;20253;-79
2023/05/14 08:27:29;;;;;;;3.58;2.65;;;31.30;50.70;;;;;;5043240;28;20220;-79
2023/05/14 08:29:55;;;;;;;3.67;2.65;;;31.40;49.30;;;;;;5058908;28;21675;-80
2023/05/14 08:32:23;;;;;;;4.68;2.50;;;31.50;47.10;;;;;;5056916;28;20224;-79
2023/05/14 08:34:51;;;;;;;4.28;2.47;;;31.60;47.60;;;;;;5056652;28;20722;-81
2023/05/14 08:37:17;;;;;;;4.15;2.78;;;31.60;47.60;;;;;;5061531;28;20239;-81
2023/05/14 08:39:44;;;;;;;3.58;2.65;;;31.70;46.90;;;;;;5060120;28;20294;-80
2023/05/14 08:42:13;;;;;;;3.88;2.65;;;31.80;47.40;;;;;;5060715;28;20230;-81
2023/05/14 08:44:48;;;;;;;2.83;2.45;;;32.10;46.20;;;;;;5059356;28;20227;-80
2023/05/14 08:47:17;;;;;;;5.85;2.90;;;32.20;42.90;;;;;;5062601;28;20218;-81
2023/05/14 08:49:48;;;;;;;2.83;2.40;;;32.20;43.10;;;;;;5060065;28;20231;-81
2023/05/14 08:52:18;;;;;;;3.58;2.50;;;32.20;43.80;;;;;;5062635;28;20241;-81
2023/05/14 08:54:46;;;;;;;3.05;2.38;;;32.20;44.50;;;;;;5048404;28;20314;-81
2023/05/14 08:57:14;;;;;;;2.90;2.60;;;32.20;43.80;;;;;;5062564;28;20235;-81
2023/05/14 08:59:41;;;;;;;2.60;2.40;;;32.30;44.00;;;;;;5064382;28;20246;-81
2023/05/14 09:02:11;;;;;;;3.45;2.50;;;32.40;43.20;;;;;;5061657;28;20269;-81
2023/05/14 09:04:39;;;;;;;3.33;2.30;;;32.50;43.10;;;;;;5061666;28;20718;-81
2023/05/14 09:07:07;;;;;;;2.78;2.50;;;32.60;42.80;;;;;;5061562;28;20219;-82
2023/05/14 09:09:34;;;;;;;3.60;2.30;;;32.70;42.70;;;;;;5049285;28;20991;-81
2023/05/14 09:12:02;;;;;;;6.70;2.85;;;32.80;42.70;;;;;;5047700;28;20219;-81
2023/05/14 09:14:28;;;;;;;4.60;2.83;;;33.00;42.00;;;;;;5063274;28;20235;-81
2023/05/14 09:16:56;;;;;;;3.42;2.63;;;33.00;41.50;;;;;;5062678;28;20223;-81
2023/05/14 09:19:23;;;;;;;3.40;2.58;;;33.10;41.50;;;;;;5046090;28;20457;-81
2023/05/14 09:21:50;;;;;;;2.92;2.70;;;33.20;41.40;;;;;;5060630;28;20215;-80
2023/05/14 09:24:22;;;;;;;4.85;2.70;;;33.30;41.50;;;;;;5063702;28;20227;-81
2023/05/14 09:26:51;;;;;;;4.53;2.38;;;33.40;39.80;;;;;;5044109;28;20223;-81
2023/05/14 09:29:18;;;;;;;3.53;2.40;;;33.40;38.20;;;;;;5045686;28;20251;-81
2023/05/14 09:31:44;;;;;;;3.60;2.55;;;33.40;38.10;;;;;;5044092;28;20223;-81
2023/05/14 09:34:12;;;;;;;3.10;2.67;;;33.40;39.10;;;;;;5058923;28;20231;-81
2023/05/14 09:36:39;;;;;;;3.42;2.50;;;33.30;39.20;;;;;;5040901;28;20819;-81
2023/05/14 09:39:06;;;;;;;4.00;2.42;;;33.40;38.90;;;;;;5058972;28;20223;-81
2023/05/14 09:41:34;;;;;;;3.92;2.22;;;33.50;38.70;;;;;;5060562;28;20216;-81
2023/05/14 09:44:01;;;;;;;2.90;2.33;;;33.60;37.40;;;;;;5062869;28;20608;-81
2023/05/14 09:46:30;;;;;;;3.78;2.50;;;33.70;36.80;;;;;;5041147;28;20225;-81
2023/05/14 09:48:57;;;;;;;3.13;2.55;;;33.70;35.70;;;;;;5045975;28;20682;-81
2023/05/14 09:51:24;;;;;;;5.80;2.90;;;33.50;33.90;;;;;;5057402;28;20289;-81
2023/05/14 09:53:53;;;;;;;4.90;2.08;;;33.30;35.60;;;;;;5060857;28;20227;-81
2023/05/14 09:56:20;;;;;;;3.13;2.10;;;33.00;35.10;;;;;;5044321;28;20224;-81
2023/05/14 09:58:48;;;;;;;3.83;2.05;;;32.90;35.40;;;;;;5060781;28;20223;-81
2023/05/14 10:01:17;;;;;;;3.25;1.92;;;32.70;33.20;;;;;;5059123;28;20689;-81
2023/05/14 10:03:44;;;;;;;2.85;2.05;;;32.70;35.00;;;;;;5054947;28;20228;-81
2023/05/14 10:06:14;;;;;;;3.22;2.08;;;32.70;34.20;;;;;;5041905;28;20232;-81
2023/05/14 10:08:44;;;;;;;4.53;1.90;;;32.70;33.90;;;;;;5046618;28;20234;-81
2023/05/14 10:11:14;;;;;;;2.88;2.05;;;32.50;34.00;;;;;;5061222;28;20220;-81
2023/05/14 10:13:46;;;;;;;3.35;2.25;;;32.30;34.70;;;;;;5057805;28;20307;-81
2023/05/14 10:16:19;;;;;;;4.50;1.85;;;32.10;35.30;;;;;;5060259;28;20228;-81
2023/05/14 10:18:51;;;;;;;3.13;2.40;;;31.80;34.30;;;;;;5057959;28;20306;-81
2023/05/14 10:21:21;;;;;;;4.82;2.20;;;31.60;35.10;;;;;;5042888;28;20227;-81
2023/05/14 10:23:48;;;;;;;2.63;2.33;;;31.40;34.90;;;;;;5059705;28;20231;-81
2023/05/14 10:26:15;;;;;;;3.13;2.55;;;31.20;35.00;;;;;;5061197;28;20607;-81
2023/05/14 10:28:43;;;;;;;3.78;2.00;;;30.90;33.40;;;;;;5060495;28;20227;-81
2023/05/14 10:31:10;;;;;;;2.58;2.17;;;30.50;34.80;;;;;;5044431;28;20250;-81
2023/05/14 10:33:49;;;;;;;3.25;2.15;;;30.30;36.10;;;;;;5059062;28;20724;-81
2023/05/14 10:36:17;;;;;;;2.88;1.90;;;30.20;35.30;;;;;;5041076;28;20224;-81
2023/05/14 10:38:44;;;;;;;3.15;2.30;;;30.10;35.90;;;;;;5060875;28;20223;-81
2023/05/14 10:41:13;;;;;;;2.90;2.10;;;30.00;35.40;;;;;;5059354;28;20302;-81
2023/05/14 10:43:41;;;;;;;4.88;2.20;;;30.10;35.60;;;;;;5052207;28;20227;-81
2023/05/14 10:46:09;;;;;;;2.42;2.22;;;30.20;36.00;;;;;;5038040;28;20220;-81
2023/05/14 10:48:37;;;;;;;4.93;2.40;;;30.20;36.00;;;;;;5057564;28;20247;-81
2023/05/14 10:51:07;;;;;;;2.30;2.10;;;30.40;36.10;;;;;;5055194;28;20298;-81
2023/05/14 10:53:36;;;;;;;3.42;2.30;;;30.40;36.10;;;;;;5057903;28;20257;-81
2023/05/14 10:56:05;;;;;;;4.03;2.30;;;30.60;35.40;;;;;;5043981;28;20228;-81
2023/05/14 10:58:33;;;;;;;2.58;2.30;;;30.80;36.60;;;;;;5056211;28;20318;-81
2023/05/14 11:01:00;;;;;;;4.57;2.42;;;31.10;36.30;;;;;;5040504;28;20916;-81
2023/05/14 11:03:29;;;;;;;3.60;2.38;;;31.10;35.10;;;;;;5041982;28;20227;-81
2023/05/14 11:05:56;;;;;;;4.28;2.70;;;31.00;33.70;;;;;;5056164;28;20223;-81
2023/05/14 11:08:26;;;;;;;2.78;2.58;;;30.70;34.10;;;;;;5037173;28;20497;-81
2023/05/14 11:10:55;;;;;;;2.95;2.22;;;30.30;35.00;;;;;;5058024;28;20231;-81
2023/05/14 11:13:22;;;;;;;3.28;2.45;;;29.90;35.70;;;;;;5060438;28;20224;-81
2023/05/14 11:15:49;;;;;;;2.55;2.22;;;29.50;35.20;;;;;;5063921;28;20218;-81
2023/05/14 11:18:26;;;;;;;2.75;2.40;;;29.00;36.20;;;;;;5056968;28;20223;-80
2023/05/14 11:20:54;;;;;;;4.43;2.80;;;28.60;36.50;;;;;;5038884;28;20224;-81
2023/05/14 11:23:25;;;;;;;3.85;2.70;;;28.30;36.80;;;;;;5058963;28;20223;-81
2023/05/14 11:25:53;;;;;;;4.03;2.50;;;27.90;37.50;;;;;;5052186;28;20252;-81
2023/05/14 11:28:20;;;;;;;3.63;2.80;;;27.70;38.20;;;;;;5050912;28;20216;-81
2023/05/14 11:30:47;;;;;;;4.07;2.70;;;27.40;38.80;;;;;;5060126;28;20223;-82
2023/05/14 11:33:14;;;;;;;4.65;3.00;;;27.10;38.40;;;;;;5039983;28;20219;-80
2023/05/14 11:35:44;;;;;;;3.00;2.58;;;26.90;38.80;;;;;;5041768;28;20225;-81
2023/05/14 11:38:14;;;;;;;3.50;2.67;;;26.60;39.20;;;;;;5056431;28;20246;-81
2023/05/14 11:40:42;;;;;;;3.30;2.60;;;26.50;39.10;;;;;;5058206;28;20227;-80
2023/05/14 11:43:09;;;;;;;3.17;2.88;;;26.30;38.70;;;;;;5063652;28;20238;-80
2023/05/14 11:45:36;;;;;;;4.55;2.65;;;26.10;38.10;;;;;;5044400;28;20236;-79
2023/05/14 11:48:13;;;;;;;5.63;2.90;;;25.90;38.70;;;;;;5063397;28;20222;-79
2023/05/14 11:50:40;;;;;;;3.35;2.90;;;25.80;39.50;;;;;;5064950;28;20610;-81
2023/05/14 11:53:07;;;;;;;4.57;2.60;;;25.70;40.20;;;;;;5042749;28;20239;-82
2023/05/14 11:55:34;;;;;;;3.80;2.90;;;25.60;40.40;;;;;;5042552;28;20223;-82
2023/05/14 11:58:02;;;;;;;3.20;2.20;;;25.60;41.20;;;;;;5052102;28;20824;-81
2023/05/14 12:00:30;;;;;;;3.53;2.38;;;25.40;39.60;;;;;;5060163;28;20224;-82
2023/05/14 12:02:57;;;;;;;3.55;2.38;;;25.20;38.40;;;;;;5056325;28;20227;-82
2023/05/14 12:05:23;;;;;;;6.43;2.92;;;25.00;38.90;;;;;;5042477;28;20746;-81
2023/05/14 12:07:50;;;;;;;4.70;2.60;;;24.80;40.20;;;;;;5056058;28;20771;-81
2023/05/14 12:10:17;;;;;;;5.28;2.88;;;24.60;39.50;;;;;;5059089;28;20239;-81
2023/05/14 12:12:46;;;;;;;2.97;2.67;;;24.40;39.30;;;;;;5059589;28;20900;-81
2023/05/14 12:15:16;;;;;;;3.22;2.78;;;24.30;39.90;;;;;;5052491;28;20566;-81
2023/05/14 12:17:43;;;;;;;5.50;2.72;;;24.20;40.30;;;;;;5061846;28;20227;-81
2023/05/14 12:20:11;;;;;;;6.75;2.88;;;24.10;40.70;;;;;;5053695;28;20231;-81
2023/05/14 12:22:38;;;;;;;3.28;2.83;;;24.10;40.90;;;;;;5042264;28;20234;-82
2023/05/14 12:25:10;;;;;;;4.32;2.95;;;24.10;41.00;;;;;;5058290;28;20626;-81
2023/05/14 12:27:37;;;;;;;4.05;2.50;;;24.20;41.30;;;;;;5059203;28;20226;-81
2023/05/14 12:30:06;;;;;;;3.42;2.50;;;24.30;40.30;;;;;;5040503;28;20238;-82
2023/05/14 12:32:34;;;;;;;2.72;2.53;;;24.30;40.50;;;;;;5043979;28;20229;-81
2023/05/14 12:35:01;;;;;;;2.65;2.45;;;24.50;41.70;;;;;;5061609;28;20310;-82
2023/05/14 12:37:28;;;;;;;5.07;2.60;;;24.60;42.40;;;;;;5039439;28;20302;-82
2023/05/14 12:39:55;;;;;;;4.68;2.40;;;24.90;41.00;;;;;;5060014;28;20223;-81
2023/05/14 12:42:21;;;;;;;4.32;2.47;;;25.10;41.40;;;;;;5067083;28;20290;-82
2023/05/14 12:44:48;;;;;;;4.70;2.53;;;25.30;41.40;;;;;;5050776;28;20222;-82
2023/05/14 12:47:16;;;;;;;8.57;2.58;;;25.30;41.30;;;;;;5039741;28;20270;-81
2023/05/14 12:49:43;;;;;;;3.92;2.80;;;25.40;41.30;;;;;;5057119;28;20227;-82